sensor_id;sensor_type;location;lat;lon;timestamp;temperature;humidity
14101;DHT22;7127;49.372;8.166;2022-11-02T00:02:22;13.50;57.00
14101;DHT22;7127;49.372;8.166;2022-11-02T00:04:49;13.50;57.00
14101;DHT22;7127;49.372;8.166;2022-11-02T00:07:16;13.50;57.10
14101;DHT22;7127;49.372;8.166;2022-11-02T00:09:43;13.40;57.10
14101;DHT22;7127;49.372;8.166;2022-11-02T00:12:10;13.40;57.10
14101;DHT22;7127;49.372;8.166;2022-11-02T00:14:38;13.40;57.00
14101;DHT22;7127;49.372;8.166;2022-11-02T00:17:06;13.40;57.10
14101;DHT22;7127;49.372;8.166;2022-11-02T00:19:34;13.30;57.10
14101;DHT22;7127;49.372;8.166;2022-11-02T00:22:01;13.30;57.20
14101;DHT22;7127;49.372;8.166;2022-11-02T00:24:30;13.30;57.20
14101;DHT22;7127;49.372;8.166;2022-11-02T00:26:58;13.30;57.10
14101;DHT22;7127;49.372;8.166;2022-11-02T00:29:25;13.30;57.20
14101;DHT22;7127;49.372;8.166;2022-11-02T00:31:54;13.20;57.10
14101;DHT22;7127;49.372;8.166;2022-11-02T00:34:21;13.20;57.20
14101;DHT22;7127;49.372;8.166;2022-11-02T00:36:48;13.20;57.20
14101;DHT22;7127;49.372;8.166;2022-11-02T00:39:15;13.10;57.20
14101;DHT22;7127;49.372;8.166;2022-11-02T00:41:42;13.10;57.40
14101;DHT22;7127;49.372;8.166;2022-11-02T00:44:09;13.10;57.50
14101;DHT22;7127;49.372;8.166;2022-11-02T00:46:36;13.10;57.60
14101;DHT22;7127;49.372;8.166;2022-11-02T00:49:04;13.10;57.60
14101;DHT22;7127;49.372;8.166;2022-11-02T00:51:31;13.10;57.70
14101;DHT22;7127;49.372;8.166;2022-11-02T00:53:58;13.20;57.80
14101;DHT22;7127;49.372;8.166;2022-11-02T00:56:25;13.10;57.70
14101;DHT22;7127;49.372;8.166;2022-11-02T00:58:52;13.20;57.90
14101;DHT22;7127;49.372;8.166;2022-11-02T01:01:19;13.20;57.90
14101;DHT22;7127;49.372;8.166;2022-11-02T01:03:46;13.20;57.90
14101;DHT22;7127;49.372;8.166;2022-11-02T01:06:15;13.20;57.90
14101;DHT22;7127;49.372;8.166;2022-11-02T01:08:42;13.20;57.90
14101;DHT22;7127;49.372;8.166;2022-11-02T01:11:14;13.20;58.00
14101;DHT22;7127;49.372;8.166;2022-11-02T01:13:41;13.30;58.00
14101;DHT22;7127;49.372;8.166;2022-11-02T01:16:09;13.30;57.90
14101;DHT22;7127;49.372;8.166;2022-11-02T01:18:36;13.30;57.90
14101;DHT22;7127;49.372;8.166;2022-11-02T01:21:04;13.30;57.90
14101;DHT22;7127;49.372;8.166;2022-11-02T01:23:33;13.30;57.90
14101;DHT22;7127;49.372;8.166;2022-11-02T01:26:01;13.30;57.80
14101;DHT22;7127;49.372;8.166;2022-11-02T01:28:29;13.30;57.90
14101;DHT22;7127;49.372;8.166;2022-11-02T01:30:56;13.30;57.80
14101;DHT22;7127;49.372;8.166;2022-11-02T01:33:24;13.30;57.90
14101;DHT22;7127;49.372;8.166;2022-11-02T01:35:52;13.30;57.90
14101;DHT22;7127;49.372;8.166;2022-11-02T01:38:19;13.30;57.90
14101;DHT22;7127;49.372;8.166;2022-11-02T01:40:48;13.30;57.90
14101;DHT22;7127;49.372;8.166;2022-11-02T01:43:19;13.30;58.10
14101;DHT22;7127;49.372;8.166;2022-11-02T01:45:47;13.30;58.00
14101;DHT22;7127;49.372;8.166;2022-11-02T01:48:14;13.30;58.00
14101;DHT22;7127;49.372;8.166;2022-11-02T01:50:42;13.30;58.00
14101;DHT22;7127;49.372;8.166;2022-11-02T01:53:09;13.30;58.00
14101;DHT22;7127;49.372;8.166;2022-11-02T01:55:37;13.30;58.10
14101;DHT22;7127;49.372;8.166;2022-11-02T01:58:09;13.30;58.20
14101;DHT22;7127;49.372;8.166;2022-11-02T02:00:38;13.30;58.20
14101;DHT22;7127;49.372;8.166;2022-11-02T02:03:07;13.30;58.30
14101;DHT22;7127;49.372;8.166;2022-11-02T02:05:39;13.30;58.30
14101;DHT22;7127;49.372;8.166;2022-11-02T02:08:08;13.30;58.30
14101;DHT22;7127;49.372;8.166;2022-11-02T02:10:36;13.30;58.30
14101;DHT22;7127;49.372;8.166;2022-11-02T02:13:04;13.30;58.20
14101;DHT22;7127;49.372;8.166;2022-11-02T02:15:38;13.30;58.20
14101;DHT22;7127;49.372;8.166;2022-11-02T02:18:10;13.30;58.30
14101;DHT22;7127;49.372;8.166;2022-11-02T02:20:47;13.30;58.30
14101;DHT22;7127;49.372;8.166;2022-11-02T02:26:45;13.30;58.30
14101;DHT22;7127;49.372;8.166;2022-11-02T02:29:19;13.30;58.30
14101;DHT22;7127;49.372;8.166;2022-11-02T02:31:53;13.30;58.80
14101;DHT22;7127;49.372;8.166;2022-11-02T02:34:25;13.30;58.30
14101;DHT22;7127;49.372;8.166;2022-11-02T02:36:56;13.20;58.20
14101;DHT22;7127;49.372;8.166;2022-11-02T02:39:26;13.30;58.30
14101;DHT22;7127;49.372;8.166;2022-11-02T02:41:58;13.20;58.20
14101;DHT22;7127;49.372;8.166;2022-11-02T02:44:33;13.20;58.20
14101;DHT22;7127;49.372;8.166;2022-11-02T02:47:04;13.20;58.20
14101;DHT22;7127;49.372;8.166;2022-11-02T02:49:35;13.20;58.20
14101;DHT22;7127;49.372;8.166;2022-11-02T02:52:03;13.20;58.20
14101;DHT22;7127;49.372;8.166;2022-11-02T02:54:34;13.20;58.20
14101;DHT22;7127;49.372;8.166;2022-11-02T02:57:06;13.20;58.20
14101;DHT22;7127;49.372;8.166;2022-11-02T02:59:38;13.20;58.20
14101;DHT22;7127;49.372;8.166;2022-11-02T03:02:07;13.20;58.20
14101;DHT22;7127;49.372;8.166;2022-11-02T03:04:37;13.20;58.30
14101;DHT22;7127;49.372;8.166;2022-11-02T03:07:04;13.20;58.40
14101;DHT22;7127;49.372;8.166;2022-11-02T03:09:33;13.20;58.30
14101;DHT22;7127;49.372;8.166;2022-11-02T03:12:13;13.20;58.30
14101;DHT22;7127;49.372;8.166;2022-11-02T03:14:52;13.20;58.30
14101;DHT22;7127;49.372;8.166;2022-11-02T03:17:30;13.20;58.30
14101;DHT22;7127;49.372;8.166;2022-11-02T03:20:04;13.20;58.40
14101;DHT22;7127;49.372;8.166;2022-11-02T03:22:43;13.20;58.30
14101;DHT22;7127;49.372;8.166;2022-11-02T03:25:15;13.20;58.40
14101;DHT22;7127;49.372;8.166;2022-11-02T03:27:49;13.20;58.40
14101;DHT22;7127;49.372;8.166;2022-11-02T03:30:19;13.20;58.50
14101;DHT22;7127;49.372;8.166;2022-11-02T03:32:51;13.20;58.60
14101;DHT22;7127;49.372;8.166;2022-11-02T03:35:27;13.20;58.60
14101;DHT22;7127;49.372;8.166;2022-11-02T03:38:00;13.20;58.50
14101;DHT22;7127;49.372;8.166;2022-11-02T03:40:32;13.20;58.50
14101;DHT22;7127;49.372;8.166;2022-11-02T03:43:00;13.20;58.50
14101;DHT22;7127;49.372;8.166;2022-11-02T03:45:35;13.20;58.50
14101;DHT22;7127;49.372;8.166;2022-11-02T03:48:06;13.20;58.60
14101;DHT22;7127;49.372;8.166;2022-11-02T03:50:34;13.20;58.60
14101;DHT22;7127;49.372;8.166;2022-11-02T03:53:06;13.20;58.60
14101;DHT22;7127;49.372;8.166;2022-11-02T03:55:38;13.20;58.60
14101;DHT22;7127;49.372;8.166;2022-11-02T03:58:09;13.20;58.60
14101;DHT22;7127;49.372;8.166;2022-11-02T04:00:45;13.20;58.60
14101;DHT22;7127;49.372;8.166;2022-11-02T04:03:13;13.20;58.70
14101;DHT22;7127;49.372;8.166;2022-11-02T04:05:40;13.20;58.70
14101;DHT22;7127;49.372;8.166;2022-11-02T04:08:08;13.20;58.80
14101;DHT22;7127;49.372;8.166;2022-11-02T04:10:49;13.20;58.80
14101;DHT22;7127;49.372;8.166;2022-11-02T04:13:34;13.30;58.90
14101;DHT22;7127;49.372;8.166;2022-11-02T04:16:21;13.30;58.90
14101;DHT22;7127;49.372;8.166;2022-11-02T04:18:48;13.40;59.10
14101;DHT22;7127;49.372;8.166;2022-11-02T04:21:32;13.40;59.20
14101;DHT22;7127;49.372;8.166;2022-11-02T04:23:59;13.50;59.40
14101;DHT22;7127;49.372;8.166;2022-11-02T04:26:43;13.50;59.40
14101;DHT22;7127;49.372;8.166;2022-11-02T04:29:10;13.60;59.40
14101;DHT22;7127;49.372;8.166;2022-11-02T04:31:39;13.60;59.40
14101;DHT22;7127;49.372;8.166;2022-11-02T04:34:06;13.70;59.50
14101;DHT22;7127;49.372;8.166;2022-11-02T04:36:32;13.80;59.90
14101;DHT22;7127;49.372;8.166;2022-11-02T04:38:59;13.80;60.00
14101;DHT22;7127;49.372;8.166;2022-11-02T04:41:25;13.90;60.20
14101;DHT22;7127;49.372;8.166;2022-11-02T04:44:07;14.00;60.30
14101;DHT22;7127;49.372;8.166;2022-11-02T04:46:36;14.10;60.50
14101;DHT22;7127;49.372;8.166;2022-11-02T04:49:05;14.10;60.40
14101;DHT22;7127;49.372;8.166;2022-11-02T04:51:32;14.20;61.30
14101;DHT22;7127;49.372;8.166;2022-11-02T04:54:00;14.30;60.60
14101;DHT22;7127;49.372;8.166;2022-11-02T04:56:28;14.40;60.70
14101;DHT22;7127;49.372;8.166;2022-11-02T04:58:56;14.40;60.60
14101;DHT22;7127;49.372;8.166;2022-11-02T05:01:25;14.50;60.60
14101;DHT22;7127;49.372;8.166;2022-11-02T05:03:53;14.50;60.60
14101;DHT22;7127;49.372;8.166;2022-11-02T05:06:23;14.60;60.50
14101;DHT22;7127;49.372;8.166;2022-11-02T05:08:50;14.70;60.40
14101;DHT22;7127;49.372;8.166;2022-11-02T05:11:17;14.70;60.20
14101;DHT22;7127;49.372;8.166;2022-11-02T05:13:44;14.70;60.10
14101;DHT22;7127;49.372;8.166;2022-11-02T05:16:12;14.80;60.20
14101;DHT22;7127;49.372;8.166;2022-11-02T05:18:40;14.80;60.20
14101;DHT22;7127;49.372;8.166;2022-11-02T05:21:08;14.90;60.30
14101;DHT22;7127;49.372;8.166;2022-11-02T05:23:37;14.90;60.20
14101;DHT22;7127;49.372;8.166;2022-11-02T05:26:06;14.90;60.90
14101;DHT22;7127;49.372;8.166;2022-11-02T05:28:33;15.00;60.10
14101;DHT22;7127;49.372;8.166;2022-11-02T05:31:01;15.00;60.00
14101;DHT22;7127;49.372;8.166;2022-11-02T05:33:29;15.00;60.70
14101;DHT22;7127;49.372;8.166;2022-11-02T05:35:57;15.10;60.00
14101;DHT22;7127;49.372;8.166;2022-11-02T05:38:25;15.10;59.90
14101;DHT22;7127;49.372;8.166;2022-11-02T05:40:55;15.10;59.70
14101;DHT22;7127;49.372;8.166;2022-11-02T05:43:22;15.10;59.70
14101;DHT22;7127;49.372;8.166;2022-11-02T05:45:53;15.10;59.70
14101;DHT22;7127;49.372;8.166;2022-11-02T05:48:21;15.10;59.70
14101;DHT22;7127;49.372;8.166;2022-11-02T05:50:48;15.10;59.60
14101;DHT22;7127;49.372;8.166;2022-11-02T05:53:15;15.10;59.60
14101;DHT22;7127;49.372;8.166;2022-11-02T05:55:42;15.00;59.50
14101;DHT22;7127;49.372;8.166;2022-11-02T05:58:11;15.10;59.60
14101;DHT22;7127;49.372;8.166;2022-11-02T06:00:38;15.10;59.60
14101;DHT22;7127;49.372;8.166;2022-11-02T06:03:05;15.10;59.60
14101;DHT22;7127;49.372;8.166;2022-11-02T06:05:33;15.10;59.50
14101;DHT22;7127;49.372;8.166;2022-11-02T06:08:00;15.10;59.50
14101;DHT22;7127;49.372;8.166;2022-11-02T06:10:28;15.00;59.40
14101;DHT22;7127;49.372;8.166;2022-11-02T06:12:56;15.00;59.40
14101;DHT22;7127;49.372;8.166;2022-11-02T06:15:25;15.00;59.40
14101;DHT22;7127;49.372;8.166;2022-11-02T06:17:52;15.00;59.40
14101;DHT22;7127;49.372;8.166;2022-11-02T06:20:20;15.00;59.40
14101;DHT22;7127;49.372;8.166;2022-11-02T06:22:48;15.00;59.40
14101;DHT22;7127;49.372;8.166;2022-11-02T06:25:15;15.00;59.50
14101;DHT22;7127;49.372;8.166;2022-11-02T06:27:49;15.00;59.60
14101;DHT22;7127;49.372;8.166;2022-11-02T06:30:17;15.00;59.60
14101;DHT22;7127;49.372;8.166;2022-11-02T06:32:47;15.00;59.60
14101;DHT22;7127;49.372;8.166;2022-11-02T06:35:14;15.00;59.60
14101;DHT22;7127;49.372;8.166;2022-11-02T06:37:42;15.00;59.40
14101;DHT22;7127;49.372;8.166;2022-11-02T06:40:10;15.00;59.30
14101;DHT22;7127;49.372;8.166;2022-11-02T06:42:37;15.00;59.30
14101;DHT22;7127;49.372;8.166;2022-11-02T06:45:05;15.00;59.30
14101;DHT22;7127;49.372;8.166;2022-11-02T06:47:33;15.00;59.30
14101;DHT22;7127;49.372;8.166;2022-11-02T06:50:03;15.00;59.40
14101;DHT22;7127;49.372;8.166;2022-11-02T06:52:30;15.00;59.40
14101;DHT22;7127;49.372;8.166;2022-11-02T06:54:57;15.00;59.40
14101;DHT22;7127;49.372;8.166;2022-11-02T06:57:24;15.00;59.50
14101;DHT22;7127;49.372;8.166;2022-11-02T06:59:51;15.00;59.40
14101;DHT22;7127;49.372;8.166;2022-11-02T07:02:18;15.00;59.40
14101;DHT22;7127;49.372;8.166;2022-11-02T07:04:47;15.00;59.40
14101;DHT22;7127;49.372;8.166;2022-11-02T07:07:15;15.00;59.40
14101;DHT22;7127;49.372;8.166;2022-11-02T07:09:42;15.00;59.30
14101;DHT22;7127;49.372;8.166;2022-11-02T07:12:09;15.10;59.30
14101;DHT22;7127;49.372;8.166;2022-11-02T07:14:36;15.10;59.30
14101;DHT22;7127;49.372;8.166;2022-11-02T07:17:03;15.00;59.20
14101;DHT22;7127;49.372;8.166;2022-11-02T07:19:30;15.10;59.30
14101;DHT22;7127;49.372;8.166;2022-11-02T07:21:57;15.10;59.40
14101;DHT22;7127;49.372;8.166;2022-11-02T07:24:26;15.10;59.40
14101;DHT22;7127;49.372;8.166;2022-11-02T07:26:53;15.10;59.30
14101;DHT22;7127;49.372;8.166;2022-11-02T07:29:20;15.10;59.30
14101;DHT22;7127;49.372;8.166;2022-11-02T07:31:47;15.10;59.80
14101;DHT22;7127;49.372;8.166;2022-11-02T07:34:14;15.20;59.30
14101;DHT22;7127;49.372;8.166;2022-11-02T07:36:41;15.20;59.20
14101;DHT22;7127;49.372;8.166;2022-11-02T07:39:08;15.20;59.10
14101;DHT22;7127;49.372;8.166;2022-11-02T07:41:37;15.20;59.10
14101;DHT22;7127;49.372;8.166;2022-11-02T07:44:04;15.30;59.10
14101;DHT22;7127;49.372;8.166;2022-11-02T07:46:31;15.20;59.00
14101;DHT22;7127;49.372;8.166;2022-11-02T07:48:58;15.30;59.00
14101;DHT22;7127;49.372;8.166;2022-11-02T07:51:25;15.30;59.00
14101;DHT22;7127;49.372;8.166;2022-11-02T07:53:52;15.30;59.00
14101;DHT22;7127;49.372;8.166;2022-11-02T07:56:19;15.30;58.80
14101;DHT22;7127;49.372;8.166;2022-11-02T07:58:47;15.30;58.80
14101;DHT22;7127;49.372;8.166;2022-11-02T08:01:14;15.30;58.90
14101;DHT22;7127;49.372;8.166;2022-11-02T08:03:41;15.40;59.10
14101;DHT22;7127;49.372;8.166;2022-11-02T08:06:08;15.40;59.10
14101;DHT22;7127;49.372;8.166;2022-11-02T08:08:36;15.40;59.10
14101;DHT22;7127;49.372;8.166;2022-11-02T08:11:05;15.50;59.20
14101;DHT22;7127;49.372;8.166;2022-11-02T08:13:33;15.50;59.20
14101;DHT22;7127;49.372;8.166;2022-11-02T08:16:02;15.50;59.20
14101;DHT22;7127;49.372;8.166;2022-11-02T08:18:29;15.60;59.30
14101;DHT22;7127;49.372;8.166;2022-11-02T08:20:58;15.70;59.20
14101;DHT22;7127;49.372;8.166;2022-11-02T08:23:26;15.70;59.20
14101;DHT22;7127;49.372;8.166;2022-11-02T08:25:54;15.80;59.20
14101;DHT22;7127;49.372;8.166;2022-11-02T08:28:22;15.80;59.00
14101;DHT22;7127;49.372;8.166;2022-11-02T08:30:50;15.90;59.00
14101;DHT22;7127;49.372;8.166;2022-11-02T08:33:19;15.90;58.90
14101;DHT22;7127;49.372;8.166;2022-11-02T08:35:47;16.00;58.80
14101;DHT22;7127;49.372;8.166;2022-11-02T08:38:15;16.00;58.70
14101;DHT22;7127;49.372;8.166;2022-11-02T08:40:43;16.00;58.60
14101;DHT22;7127;49.372;8.166;2022-11-02T08:43:12;16.10;58.70
14101;DHT22;7127;49.372;8.166;2022-11-02T08:45:40;16.10;58.50
14101;DHT22;7127;49.372;8.166;2022-11-02T08:48:08;16.10;58.40
14101;DHT22;7127;49.372;8.166;2022-11-02T08:50:37;16.20;58.40
14101;DHT22;7127;49.372;8.166;2022-11-02T08:53:04;16.20;58.20
14101;DHT22;7127;49.372;8.166;2022-11-02T08:55:32;16.20;58.20
14101;DHT22;7127;49.372;8.166;2022-11-02T08:57:59;16.20;58.20
14101;DHT22;7127;49.372;8.166;2022-11-02T09:00:35;16.30;58.20
14101;DHT22;7127;49.372;8.166;2022-11-02T09:03:03;16.30;57.90
14101;DHT22;7127;49.372;8.166;2022-11-02T09:05:32;16.30;57.70
14101;DHT22;7127;49.372;8.166;2022-11-02T09:08:02;16.30;57.70
14101;DHT22;7127;49.372;8.166;2022-11-02T09:10:31;16.30;57.40
14101;DHT22;7127;49.372;8.166;2022-11-02T09:12:58;16.30;57.50
14101;DHT22;7127;49.372;8.166;2022-11-02T09:15:26;16.40;57.50
14101;DHT22;7127;49.372;8.166;2022-11-02T09:17:57;16.20;56.40
14101;DHT22;7127;49.372;8.166;2022-11-02T09:20:24;16.40;57.10
14101;DHT22;7127;49.372;8.166;2022-11-02T09:22:51;16.40;57.00
14101;DHT22;7127;49.372;8.166;2022-11-02T09:25:20;16.40;57.20
14101;DHT22;7127;49.372;8.166;2022-11-02T09:27:51;16.40;56.90
14101;DHT22;7127;49.372;8.166;2022-11-02T09:30:19;16.40;56.50
14101;DHT22;7127;49.372;8.166;2022-11-02T09:32:53;16.40;56.70
14101;DHT22;7127;49.372;8.166;2022-11-02T09:35:20;16.50;56.50
14101;DHT22;7127;49.372;8.166;2022-11-02T09:37:47;16.50;56.60
14101;DHT22;7127;49.372;8.166;2022-11-02T09:40:20;16.50;57.30
14101;DHT22;7127;49.372;8.166;2022-11-02T09:42:56;16.60;56.70
14101;DHT22;7127;49.372;8.166;2022-11-02T09:45:24;16.60;56.40
14101;DHT22;7127;49.372;8.166;2022-11-02T09:47:57;16.60;56.60
14101;DHT22;7127;49.372;8.166;2022-11-02T09:50:35;16.70;56.40
14101;DHT22;7127;49.372;8.166;2022-11-02T09:53:06;16.70;55.70
14101;DHT22;7127;49.372;8.166;2022-11-02T09:55:49;16.70;55.90
14101;DHT22;7127;49.372;8.166;2022-11-02T09:58:21;16.70;55.50
14101;DHT22;7127;49.372;8.166;2022-11-02T10:00:51;16.80;55.70
14101;DHT22;7127;49.372;8.166;2022-11-02T10:03:29;16.70;55.50
14101;DHT22;7127;49.372;8.166;2022-11-02T10:06:02;16.70;55.40
14101;DHT22;7127;49.372;8.166;2022-11-02T10:08:38;16.80;55.80
14101;DHT22;7127;49.372;8.166;2022-11-02T10:11:20;16.80;55.50
14101;DHT22;7127;49.372;8.166;2022-11-02T10:13:53;16.80;55.40
14101;DHT22;7127;49.372;8.166;2022-11-02T10:16:26;16.80;55.40
14101;DHT22;7127;49.372;8.166;2022-11-02T10:18:59;16.80;55.60
14101;DHT22;7127;49.372;8.166;2022-11-02T10:21:30;16.80;55.40
14101;DHT22;7127;49.372;8.166;2022-11-02T10:24:00;16.90;55.40
14101;DHT22;7127;49.372;8.166;2022-11-02T10:26:33;16.90;55.40
14101;DHT22;7127;49.372;8.166;2022-11-02T10:29:05;16.90;55.40
14101;DHT22;7127;49.372;8.166;2022-11-02T10:31:37;17.00;55.50
14101;DHT22;7127;49.372;8.166;2022-11-02T10:34:16;17.00;55.30
14101;DHT22;7127;49.372;8.166;2022-11-02T10:36:50;17.00;55.20
14101;DHT22;7127;49.372;8.166;2022-11-02T10:39:24;17.10;55.10
14101;DHT22;7127;49.372;8.166;2022-11-02T10:42:05;17.10;54.80
14101;DHT22;7127;49.372;8.166;2022-11-02T10:44:50;17.10;54.40
14101;DHT22;7127;49.372;8.166;2022-11-02T10:47:21;17.20;54.70
14101;DHT22;7127;49.372;8.166;2022-11-02T10:50:05;17.20;55.00
14101;DHT22;7127;49.372;8.166;2022-11-02T10:52:39;17.20;54.60
14101;DHT22;7127;49.372;8.166;2022-11-02T10:55:16;17.20;54.50
14101;DHT22;7127;49.372;8.166;2022-11-02T10:57:47;17.20;54.50
14101;DHT22;7127;49.372;8.166;2022-11-02T11:00:25;17.30;54.40
14101;DHT22;7127;49.372;8.166;2022-11-02T11:03:08;17.30;54.30
14101;DHT22;7127;49.372;8.166;2022-11-02T11:05:38;17.30;53.70
14101;DHT22;7127;49.372;8.166;2022-11-02T11:08:27;17.30;53.90
14101;DHT22;7127;49.372;8.166;2022-11-02T11:10:54;17.30;53.10
14101;DHT22;7127;49.372;8.166;2022-11-02T11:13:36;17.30;54.00
14101;DHT22;7127;49.372;8.166;2022-11-02T11:16:04;17.40;54.00
14101;DHT22;7127;49.372;8.166;2022-11-02T11:18:31;17.40;54.00
14101;DHT22;7127;49.372;8.166;2022-11-02T11:20:59;17.40;53.40
14101;DHT22;7127;49.372;8.166;2022-11-02T11:23:26;17.40;53.50
14101;DHT22;7127;49.372;8.166;2022-11-02T11:25:56;17.50;53.60
14101;DHT22;7127;49.372;8.166;2022-11-02T11:28:25;17.50;53.40
14101;DHT22;7127;49.372;8.166;2022-11-02T11:31:04;17.50;53.70
14101;DHT22;7127;49.372;8.166;2022-11-02T11:33:32;17.60;53.10
14101;DHT22;7127;49.372;8.166;2022-11-02T11:36:00;17.60;53.80
14101;DHT22;7127;49.372;8.166;2022-11-02T11:38:27;17.60;53.30
14101;DHT22;7127;49.372;8.166;2022-11-02T11:40:55;17.70;53.20
14101;DHT22;7127;49.372;8.166;2022-11-02T11:43:25;17.70;52.30
14101;DHT22;7127;49.372;8.166;2022-11-02T11:45:54;17.70;52.60
14101;DHT22;7127;49.372;8.166;2022-11-02T11:48:33;17.70;52.70
14101;DHT22;7127;49.372;8.166;2022-11-02T11:51:01;17.80;51.80
14101;DHT22;7127;49.372;8.166;2022-11-02T11:53:29;17.80;52.60
14101;DHT22;7127;49.372;8.166;2022-11-02T11:55:57;17.80;52.60
14101;DHT22;7127;49.372;8.166;2022-11-02T11:58:26;17.80;52.40
14101;DHT22;7127;49.372;8.166;2022-11-02T12:01:12;17.80;51.40
14101;DHT22;7127;49.372;8.166;2022-11-02T12:03:53;17.80;51.20
14101;DHT22;7127;49.372;8.166;2022-11-02T12:06:27;17.90;51.20
14101;DHT22;7127;49.372;8.166;2022-11-02T12:09:02;17.90;51.00
14101;DHT22;7127;49.372;8.166;2022-11-02T12:11:41;17.90;51.50
14101;DHT22;7127;49.372;8.166;2022-11-02T12:14:18;17.90;51.50
14101;DHT22;7127;49.372;8.166;2022-11-02T12:17:10;17.90;50.80
14101;DHT22;7127;49.372;8.166;2022-11-02T12:20:04;18.00;50.70
14101;DHT22;7127;49.372;8.166;2022-11-02T12:22:40;18.00;50.40
14101;DHT22;7127;49.372;8.166;2022-11-02T12:25:19;18.00;51.00
14101;DHT22;7127;49.372;8.166;2022-11-02T12:27:55;18.00;50.40
14101;DHT22;7127;49.372;8.166;2022-11-02T12:30:29;18.00;50.20
14101;DHT22;7127;49.372;8.166;2022-11-02T12:33:05;18.10;50.60
14101;DHT22;7127;49.372;8.166;2022-11-02T12:35:48;18.10;50.50
14101;DHT22;7127;49.372;8.166;2022-11-02T12:38:44;18.10;50.20
14101;DHT22;7127;49.372;8.166;2022-11-02T12:41:29;18.10;50.20
14101;DHT22;7127;49.372;8.166;2022-11-02T12:44:08;18.20;50.60
14101;DHT22;7127;49.372;8.166;2022-11-02T12:46:42;18.20;50.70
14101;DHT22;7127;49.372;8.166;2022-11-02T12:49:30;18.20;50.30
14101;DHT22;7127;49.372;8.166;2022-11-02T12:52:09;18.20;50.40
14101;DHT22;7127;49.372;8.166;2022-11-02T12:54:43;18.20;50.20
14101;DHT22;7127;49.372;8.166;2022-11-02T12:57:12;18.20;50.40
14101;DHT22;7127;49.372;8.166;2022-11-02T12:59:41;18.10;50.00
14101;DHT22;7127;49.372;8.166;2022-11-02T13:02:12;18.10;50.10
14101;DHT22;7127;49.372;8.166;2022-11-02T13:04:47;18.20;49.90
14101;DHT22;7127;49.372;8.166;2022-11-02T13:07:20;18.20;49.70
14101;DHT22;7127;49.372;8.166;2022-11-02T13:09:54;18.20;50.00
14101;DHT22;7127;49.372;8.166;2022-11-02T13:12:23;18.20;50.00
14101;DHT22;7127;49.372;8.166;2022-11-02T13:14:53;18.20;50.10
14101;DHT22;7127;49.372;8.166;2022-11-02T13:17:23;18.20;50.10
14101;DHT22;7127;49.372;8.166;2022-11-02T13:19:53;18.20;50.50
14101;DHT22;7127;49.372;8.166;2022-11-02T13:22:27;18.20;50.00
14101;DHT22;7127;49.372;8.166;2022-11-02T13:24:56;18.20;50.20
14101;DHT22;7127;49.372;8.166;2022-11-02T13:27:30;18.20;50.20
14101;DHT22;7127;49.372;8.166;2022-11-02T13:30:00;18.20;50.10
14101;DHT22;7127;49.372;8.166;2022-11-02T13:32:31;18.20;50.30
14101;DHT22;7127;49.372;8.166;2022-11-02T13:35:02;18.30;50.40
14101;DHT22;7127;49.372;8.166;2022-11-02T13:37:34;18.30;50.50
14101;DHT22;7127;49.372;8.166;2022-11-02T13:40:05;18.30;50.50
14101;DHT22;7127;49.372;8.166;2022-11-02T13:42:51;18.30;50.40
14101;DHT22;7127;49.372;8.166;2022-11-02T13:45:42;18.30;50.20
14101;DHT22;7127;49.372;8.166;2022-11-02T13:48:39;18.30;49.90
14101;DHT22;7127;49.372;8.166;2022-11-02T13:51:22;18.30;49.90
14101;DHT22;7127;49.372;8.166;2022-11-02T13:53:54;18.30;50.20
14101;DHT22;7127;49.372;8.166;2022-11-02T13:56:26;18.20;50.00
14101;DHT22;7127;49.372;8.166;2022-11-02T13:58:56;18.30;49.90
14101;DHT22;7127;49.372;8.166;2022-11-02T14:01:25;18.20;49.80
14101;DHT22;7127;49.372;8.166;2022-11-02T14:03:55;18.20;49.90
14101;DHT22;7127;49.372;8.166;2022-11-02T14:06:23;18.20;49.90
14101;DHT22;7127;49.372;8.166;2022-11-02T14:08:56;18.20;49.80
14101;DHT22;7127;49.372;8.166;2022-11-02T14:11:32;18.20;49.60
14101;DHT22;7127;49.372;8.166;2022-11-02T14:14:19;18.20;50.10
14101;DHT22;7127;49.372;8.166;2022-11-02T14:17:12;18.20;49.10
14101;DHT22;7127;49.372;8.166;2022-11-02T14:19:54;18.20;49.30
14101;DHT22;7127;49.372;8.166;2022-11-02T14:22:21;18.20;49.10
14101;DHT22;7127;49.372;8.166;2022-11-02T14:24:54;18.10;49.60
14101;DHT22;7127;49.372;8.166;2022-11-02T14:27:31;18.10;49.40
14101;DHT22;7127;49.372;8.166;2022-11-02T14:29:59;18.10;49.60
14101;DHT22;7127;49.372;8.166;2022-11-02T14:32:40;18.10;49.60
14101;DHT22;7127;49.372;8.166;2022-11-02T14:35:37;18.10;49.20
14101;DHT22;7127;49.372;8.166;2022-11-02T14:38:24;18.10;49.00
14101;DHT22;7127;49.372;8.166;2022-11-02T14:40:59;18.10;49.20
14101;DHT22;7127;49.372;8.166;2022-11-02T14:44:03;18.10;49.40
14101;DHT22;7127;49.372;8.166;2022-11-02T14:46:50;18.10;49.10
14101;DHT22;7127;49.372;8.166;2022-11-02T14:49:23;18.10;49.40
14101;DHT22;7127;49.372;8.166;2022-11-02T14:51:59;18.00;49.60
14101;DHT22;7127;49.372;8.166;2022-11-02T14:54:29;18.00;49.30
14101;DHT22;7127;49.372;8.166;2022-11-02T14:57:02;18.00;49.60
14101;DHT22;7127;49.372;8.166;2022-11-02T14:59:32;18.00;49.60
14101;DHT22;7127;49.372;8.166;2022-11-02T15:02:03;18.00;49.70
14101;DHT22;7127;49.372;8.166;2022-11-02T15:04:32;17.90;49.60
14101;DHT22;7127;49.372;8.166;2022-11-02T15:07:02;17.90;49.60
14101;DHT22;7127;49.372;8.166;2022-11-02T15:09:55;17.90;49.50
14101;DHT22;7127;49.372;8.166;2022-11-02T15:12:38;17.90;49.10
14101;DHT22;7127;49.372;8.166;2022-11-02T15:15:28;17.80;49.60
14101;DHT22;7127;49.372;8.166;2022-11-02T15:18:31;17.80;49.30
14101;DHT22;7127;49.372;8.166;2022-11-02T15:21:25;17.80;49.30
14101;DHT22;7127;49.372;8.166;2022-11-02T15:24:21;17.70;49.30
14101;DHT22;7127;49.372;8.166;2022-11-02T15:26:52;17.70;49.30
14101;DHT22;7127;49.372;8.166;2022-11-02T15:29:32;17.70;49.70
14101;DHT22;7127;49.372;8.166;2022-11-02T15:32:03;17.60;49.50
14101;DHT22;7127;49.372;8.166;2022-11-02T15:34:35;17.60;49.70
14101;DHT22;7127;49.372;8.166;2022-11-02T15:37:06;17.60;49.70
14101;DHT22;7127;49.372;8.166;2022-11-02T15:39:34;17.50;49.70
14101;DHT22;7127;49.372;8.166;2022-11-02T15:42:03;17.50;49.70
14101;DHT22;7127;49.372;8.166;2022-11-02T15:45:02;17.50;49.70
14101;DHT22;7127;49.372;8.166;2022-11-02T15:47:38;17.40;49.40
14101;DHT22;7127;49.372;8.166;2022-11-02T15:50:38;17.30;49.60
14101;DHT22;7127;49.372;8.166;2022-11-02T15:56:09;17.20;49.60
14101;DHT22;7127;49.372;8.166;2022-11-02T15:58:45;17.10;49.70
14101;DHT22;7127;49.372;8.166;2022-11-02T16:01:21;17.10;49.70
14101;DHT22;7127;49.372;8.166;2022-11-02T16:03:50;17.00;49.70
14101;DHT22;7127;49.372;8.166;2022-11-02T16:06:23;17.00;49.80
14101;DHT22;7127;49.372;8.166;2022-11-02T16:08:51;16.90;49.80
14101;DHT22;7127;49.372;8.166;2022-11-02T16:11:19;16.90;49.90
14101;DHT22;7127;49.372;8.166;2022-11-02T16:13:46;16.70;49.80
14101;DHT22;7127;49.372;8.166;2022-11-02T16:16:15;16.70;49.80
14101;DHT22;7127;49.372;8.166;2022-11-02T16:18:47;16.70;50.00
14101;DHT22;7127;49.372;8.166;2022-11-02T16:21:16;16.60;50.00